Аэропорт: Кольцово. Екатеринбург

ICAO: USSS

METAR:
2019/03/26 13:00
USSS 261300Z 24007G13MPS 9999 SCT050CB 02/M04 Q1010 R26R/120050 NOSIG RMK QFE737/0983
METAR:
2019/03/26 12:24
TAF USSS 261058Z 2612/2712 24005G10MPS 9999 SCT011 SCT020CB 
      TEMPO 2612/2617 23010G16MPS -SHSNRA 
      BECMG 2617/2619 21003G10MPS 
      BECMG 2706/2707 5000 -SHSNRA 
      TEMPO 2707/2712 18003G13MPS